createdAt,value
2018-05-23T00:05:18.187Z,39.8
2018-05-23T00:15:17.402Z,39.8
2018-05-23T00:25:16.666Z,39.8
2018-05-23T00:35:15.795Z,39.8
2018-05-23T00:45:15.010Z,39.8
2018-05-23T00:55:14.263Z,39.8
2018-05-23T01:05:13.477Z,39.8
2018-05-23T01:15:12.653Z,39.8
2018-05-23T01:25:11.869Z,39.7
2018-05-23T01:35:11.085Z,39.7
2018-05-23T01:45:10.340Z,39.7
2018-05-23T01:55:09.553Z,39.7
2018-05-23T02:05:08.934Z,39.7
2018-05-23T02:15:07.982Z,39.6
2018-05-23T02:25:07.156Z,39.6
2018-05-23T02:35:06.432Z,39.6
2018-05-23T02:45:05.585Z,39.6
2018-05-23T02:55:04.893Z,39.6
2018-05-23T03:05:04.055Z,39.6
2018-05-23T03:15:03.278Z,39.6
2018-05-23T03:25:02.449Z,39.6
2018-05-23T03:35:01.757Z,39.6
2018-05-23T03:45:00.917Z,39.5
2018-05-23T03:55:00.126Z,39.5
2018-05-23T04:04:59.300Z,39.5
2018-05-23T04:14:58.515Z,39.5
2018-05-23T04:24:57.830Z,38.7
2018-05-23T04:34:56.983Z,38.5
2018-05-23T04:44:56.164Z,37.9
2018-05-23T04:54:55.370Z,33.5
2018-05-23T05:04:54.585Z,33.4
2018-05-23T05:14:53.840Z,33.4
2018-05-23T05:24:53.107Z,32.1
2018-05-23T05:34:52.280Z,32.1
2018-05-23T05:44:51.495Z,32.6
2018-05-23T05:54:50.701Z,32.9
2018-05-23T06:04:49.922Z,32.9
2018-05-23T06:14:49.135Z,33.4
2018-05-23T06:24:48.351Z,34.2
2018-05-23T06:34:47.576Z,35
2018-05-23T06:44:46.741Z,35.1
2018-05-23T06:54:45.965Z,35.1
2018-05-23T07:04:45.216Z,34.3
2018-05-23T07:14:44.583Z,34.1
2018-05-23T07:24:43.653Z,33.7
2018-05-23T07:34:42.873Z,34.7
2018-05-23T07:44:42.099Z,35.6
2018-05-23T07:54:41.307Z,36.6
2018-05-23T08:04:40.533Z,37.4
2018-05-23T08:14:39.753Z,38.2
2018-05-23T08:24:38.921Z,38.7
2018-05-23T08:34:38.142Z,38.8
2018-05-23T08:44:37.360Z,38.6
2018-05-23T08:54:36.630Z,39.1
2018-05-23T09:04:35.800Z,39.6
2018-05-23T09:14:35.073Z,40.1
2018-05-23T09:24:34.239Z,40.6
2018-05-23T09:34:33.459Z,40.9
2018-05-23T09:44:32.680Z,41.3
2018-05-23T09:54:31.900Z,41.5
2018-05-23T10:04:31.127Z,42.1
2018-05-23T10:14:30.340Z,42.4
2018-05-23T10:24:29.560Z,42.4
2018-05-23T10:34:28.780Z,43
2018-05-23T10:44:28.000Z,43.6
2018-05-23T10:54:27.220Z,43.9
2018-05-23T11:04:26.447Z,44.4
2018-05-23T11:14:25.661Z,44.9
2018-05-23T11:24:24.885Z,45.6
2018-05-23T11:34:24.147Z,46.3
2018-05-23T11:44:23.316Z,46.9
2018-05-23T11:54:22.540Z,47.6
2018-05-23T12:04:21.753Z,48.1
2018-05-23T12:14:20.974Z,48.6
2018-05-23T12:24:20.192Z,48.9
2018-05-23T12:34:19.464Z,49.1
2018-05-23T12:44:18.632Z,49.3
2018-05-23T12:54:17.905Z,49.4
2018-05-23T13:04:17.070Z,49.4
2018-05-23T13:14:16.290Z,49.4
2018-05-23T13:24:15.512Z,49.2
